createdAt,value
2022-08-10T00:02:18.103Z,1.13
2022-08-10T00:04:48.828Z,1.50
2022-08-10T00:07:20.246Z,1.20
2022-08-10T00:09:53.559Z,1.30
2022-08-10T00:12:24.094Z,1.45
2022-08-10T00:15:53.142Z,1.20
2022-08-10T00:18:08.052Z,1.20
2022-08-10T00:20:39.228Z,1.52
2022-08-10T00:23:10.751Z,1.30
2022-08-10T00:25:43.736Z,1.25
2022-08-10T00:28:15.034Z,1.40
2022-08-10T00:30:45.110Z,1.17
2022-08-10T00:33:15.794Z,1.17
2022-08-10T00:35:46.765Z,1.30
2022-08-10T00:38:17.738Z,1.23
2022-08-10T00:40:51.267Z,1.20
2022-08-10T00:43:23.751Z,1.10
2022-08-10T00:45:58.484Z,1.33
2022-08-10T00:48:33.718Z,1.50
2022-08-10T00:51:05.179Z,1.48
2022-08-10T00:53:36.432Z,1.50
2022-08-10T00:57:14.399Z,1.60
2022-08-10T00:59:01.597Z,1.65
2022-08-10T01:02:10.045Z,1.33
2022-08-10T01:04:58.063Z,1.52
2022-08-10T01:07:59.546Z,1.35
2022-08-10T01:10:43.801Z,1.75
2022-08-10T01:13:27.779Z,1.58
2022-08-10T01:16:06.836Z,1.60
2022-08-10T01:18:53.458Z,1.45
2022-08-10T01:22:00.360Z,1.60
2022-08-10T01:25:29.798Z,1.80
2022-08-10T01:28:19.114Z,1.60
2022-08-10T01:30:58.480Z,1.85
2022-08-10T01:33:58.961Z,2.08
2022-08-10T01:36:35.439Z,1.70
2022-08-10T01:39:09.953Z,1.73
2022-08-10T01:41:48.163Z,1.80
2022-08-10T01:44:35.583Z,1.92
2022-08-10T01:47:34.698Z,1.90
2022-08-10T01:50:21.508Z,1.85
2022-08-10T01:52:58.362Z,2.17
2022-08-10T01:55:31.727Z,2.13
2022-08-10T01:58:08.343Z,1.90
2022-08-10T02:00:47.057Z,2.20
2022-08-10T02:03:23.709Z,2.13
2022-08-10T02:06:01.067Z,2.33
2022-08-10T02:08:36.480Z,2.03
2022-08-10T02:11:13.332Z,2.10
2022-08-10T02:13:49.429Z,2.28
2022-08-10T02:16:24.646Z,2.28
2022-08-10T02:19:01.316Z,2.20
2022-08-10T02:21:34.860Z,2.17
2022-08-10T02:24:09.338Z,2.10
2022-08-10T02:26:40.486Z,2.20
2022-08-10T02:29:14.384Z,2.38
2022-08-10T02:31:47.499Z,2.10
2022-08-10T02:34:26.637Z,2.45
2022-08-10T02:37:00.624Z,2.10
2022-08-10T02:39:34.352Z,2.42
2022-08-10T02:45:02.061Z,2.22
2022-08-10T02:45:26.272Z,2.35
2022-08-10T02:48:07.663Z,2.42
2022-08-10T02:50:45.945Z,2.45
2022-08-10T02:53:55.420Z,2.13
2022-08-10T02:56:28.617Z,1.98
2022-08-10T02:59:04.942Z,2.08
2022-08-10T03:01:47.559Z,2.20
2022-08-10T03:04:55.602Z,2.45
2022-08-10T03:07:43.956Z,2.00
2022-08-10T03:10:21.191Z,2.03
2022-08-10T03:12:57.892Z,2.20
2022-08-10T03:15:31.412Z,2.50
2022-08-10T03:18:04.491Z,2.33
2022-08-10T03:20:41.267Z,2.38
2022-08-10T03:23:20.309Z,2.42
2022-08-10T03:25:55.901Z,2.38
2022-08-10T03:28:29.758Z,2.42
2022-08-10T03:31:04.797Z,2.35
2022-08-10T03:33:42.755Z,2.30
2022-08-10T03:36:41.692Z,2.30
2022-08-10T03:39:08.156Z,2.22
2022-08-10T03:41:47.728Z,2.28
2022-08-10T03:44:30.733Z,2.25
2022-08-10T03:47:05.230Z,2.00
2022-08-10T03:49:52.834Z,2.10
2022-08-10T03:52:24.000Z,2.13
2022-08-10T03:54:57.874Z,2.15
2022-08-10T03:57:30.736Z,2.53
2022-08-10T04:00:02.114Z,2.28
2022-08-10T04:02:46.910Z,2.47
2022-08-10T04:05:23.318Z,2.60
2022-08-10T04:08:10.479Z,2.08
2022-08-10T04:10:43.600Z,2.22
2022-08-10T04:13:14.417Z,2.17
2022-08-10T04:15:46.213Z,2.17
2022-08-10T04:18:16.609Z,2.30
2022-08-10T04:20:56.082Z,2.40
2022-08-10T04:23:33.552Z,2.20
2022-08-10T04:26:07.200Z,2.20
2022-08-10T04:28:39.470Z,2.10
2022-08-10T04:31:15.645Z,2.22
2022-08-10T04:33:53.548Z,2.22
2022-08-10T04:36:25.584Z,2.05
2022-08-10T04:38:58.002Z,2.33
2022-08-10T04:41:32.751Z,2.03
2022-08-10T04:44:04.064Z,2.28
2022-08-10T04:46:55.287Z,2.20
2022-08-10T04:49:54.242Z,2.28
2022-08-10T04:52:18.054Z,2.38
2022-08-10T04:54:48.861Z,2.15
2022-08-10T04:57:23.063Z,2.20
2022-08-10T04:59:53.984Z,2.13
2022-08-10T05:02:38.865Z,2.15
2022-08-10T05:05:11.795Z,2.15
2022-08-10T05:07:53.667Z,2.40
2022-08-10T05:10:24.978Z,1.98
2022-08-10T05:12:57.123Z,2.35
2022-08-10T05:15:28.188Z,2.17
2022-08-10T05:18:09.677Z,2.15
2022-08-10T05:20:46.186Z,2.22
2022-08-10T05:23:19.488Z,2.03
2022-08-10T05:25:49.858Z,2.35
2022-08-10T05:28:22.969Z,2.10
2022-08-10T05:30:58.792Z,2.13
2022-08-10T05:33:29.047Z,2.03
2022-08-10T05:36:00.075Z,2.10
2022-08-10T05:38:32.996Z,2.08
2022-08-10T05:41:05.660Z,2.08
2022-08-10T05:43:38.551Z,2.15
2022-08-10T05:46:16.904Z,2.22
2022-08-10T05:48:56.379Z,1.90
2022-08-10T05:55:34.070Z,2.00
2022-08-10T05:58:05.242Z,1.83
2022-08-10T06:00:50.016Z,1.80
2022-08-10T06:03:30.074Z,2.00
2022-08-10T06:06:03.465Z,2.03
2022-08-10T06:08:37.620Z,1.98
2022-08-10T06:12:25.987Z,2.10
2022-08-10T06:14:20.479Z,2.20
2022-08-10T06:17:03.059Z,2.10
2022-08-10T06:19:34.311Z,2.20
2022-08-10T06:22:05.915Z,2.08
2022-08-10T06:25:04.604Z,2.33
2022-08-10T06:27:34.493Z,2.10
2022-08-10T06:30:20.836Z,2.20
2022-08-10T06:32:56.109Z,2.10
2022-08-10T06:35:31.013Z,2.10
2022-08-10T06:38:06.338Z,2.10
2022-08-10T06:40:43.168Z,2.15
2022-08-10T06:43:20.400Z,2.00
2022-08-10T06:46:07.423Z,2.20
2022-08-10T06:48:49.611Z,1.92
2022-08-10T06:51:27.658Z,2.00
2022-08-10T06:54:04.309Z,1.92
2022-08-10T06:56:50.873Z,1.67
2022-08-10T06:59:40.177Z,2.00
2022-08-10T07:02:17.249Z,2.15
2022-08-10T07:04:57.795Z,2.08
2022-08-10T07:07:33.738Z,2.10
2022-08-10T07:10:05.038Z,2.35
2022-08-10T07:12:39.608Z,2.00
2022-08-10T07:15:15.750Z,2.10
2022-08-10T07:17:47.635Z,2.20
2022-08-10T07:20:24.664Z,2.35
2022-08-10T07:23:27.155Z,2.20
2022-08-10T07:25:51.487Z,2.10
2022-08-10T07:28:25.323Z,2.00
2022-08-10T07:30:58.859Z,2.00
2022-08-10T07:33:31.449Z,1.90
2022-08-10T07:36:05.550Z,1.90
2022-08-10T07:38:48.932Z,2.05
2022-08-10T07:41:24.586Z,1.90
2022-08-10T07:43:57.884Z,1.80
2022-08-10T07:46:32.114Z,2.05
2022-08-10T07:49:19.501Z,2.00
2022-08-10T07:51:56.765Z,1.80
2022-08-10T07:54:32.436Z,2.15
2022-08-10T07:57:10.390Z,1.90
2022-08-10T07:59:46.689Z,2.05
2022-08-10T08:02:28.698Z,1.95
2022-08-10T08:05:05.105Z,2.13
2022-08-10T08:07:39.017Z,1.92
2022-08-10T08:10:17.111Z,2.15
2022-08-10T08:12:49.087Z,1.80
2022-08-10T08:16:20.222Z,1.90
2022-08-10T08:18:23.000Z,2.00
2022-08-10T08:20:59.344Z,1.77
2022-08-10T08:24:07.380Z,1.67
2022-08-10T08:26:33.617Z,1.85
2022-08-10T08:29:08.615Z,1.63
2022-08-10T08:31:54.539Z,2.00
2022-08-10T08:34:33.013Z,1.75
2022-08-10T08:37:06.599Z,1.90
2022-08-10T08:39:40.924Z,1.83
2022-08-10T08:42:46.637Z,1.90
2022-08-10T08:45:27.221Z,1.63
2022-08-10T08:48:48.824Z,1.77
2022-08-10T08:52:07.976Z,1.90
2022-08-10T08:54:51.059Z,2.20
2022-08-10T08:57:49.481Z,2.05
2022-08-10T09:00:37.220Z,1.77
2022-08-10T09:03:57.492Z,1.80
2022-08-10T09:06:57.891Z,1.50
2022-08-10T09:10:05.313Z,1.70
2022-08-10T09:12:54.058Z,1.80
2022-08-10T09:15:44.491Z,1.60
2022-08-10T09:18:26.982Z,1.60
2022-08-10T09:21:12.162Z,1.73
2022-08-10T09:24:05.294Z,1.80
2022-08-10T09:26:53.519Z,1.70
2022-08-10T09:29:30.457Z,1.70
2022-08-10T09:36:13.816Z,1.80
2022-08-10T09:36:21.775Z,1.92
2022-08-10T09:38:20.484Z,1.55
2022-08-10T09:41:06.271Z,2.00
2022-08-10T09:43:59.167Z,1.90
2022-08-10T09:47:03.813Z,1.75
2022-08-10T09:49:54.849Z,1.80
2022-08-10T09:52:58.903Z,1.80
2022-08-10T09:56:18.508Z,1.80
2022-08-10T09:58:48.484Z,1.60
2022-08-10T10:02:02.798Z,1.55
2022-08-10T10:04:31.023Z,1.60
2022-08-10T10:07:07.717Z,1.50
2022-08-10T10:09:56.160Z,1.67
2022-08-10T10:12:39.022Z,1.70
2022-08-10T10:15:29.201Z,1.70
2022-08-10T10:18:34.078Z,1.65
2022-08-10T10:21:23.950Z,1.60
2022-08-10T10:24:25.360Z,1.58
2022-08-10T10:27:02.611Z,1.80
2022-08-10T10:29:58.726Z,1.63
2022-08-10T10:32:46.989Z,1.60
2022-08-10T10:35:32.566Z,1.60
2022-08-10T10:38:09.953Z,1.77
2022-08-10T10:40:51.481Z,1.73
2022-08-10T10:43:45.995Z,1.60
2022-08-10T10:46:40.224Z,1.90
2022-08-10T10:49:28.430Z,1.90
2022-08-10T10:52:12.202Z,1.63
2022-08-10T10:54:59.306Z,2.20
2022-08-10T10:58:00.176Z,2.10
2022-08-10T11:00:48.296Z,1.90
2022-08-10T11:03:41.622Z,1.55
2022-08-10T11:06:39.757Z,1.73
2022-08-10T11:10:09.205Z,1.60
2022-08-10T11:12:26.272Z,1.75
2022-08-10T11:15:09.900Z,1.50
2022-08-10T11:17:51.032Z,1.80
2022-08-10T11:20:28.720Z,1.85
2022-08-10T11:23:20.847Z,1.90
2022-08-10T11:26:02.623Z,1.80
2022-08-10T11:28:43.691Z,1.67
2022-08-10T11:31:31.713Z,1.63
2022-08-10T11:34:49.305Z,1.70
2022-08-10T11:37:17.612Z,1.60
2022-08-10T11:40:01.198Z,1.77
2022-08-10T11:42:46.320Z,1.50
2022-08-10T11:45:24.146Z,1.52
2022-08-10T11:48:01.531Z,1.58
2022-08-10T11:50:39.371Z,1.70
2022-08-10T11:53:19.493Z,1.60
2022-08-10T11:56:09.829Z,1.70
2022-08-10T11:59:04.886Z,1.77
2022-08-10T12:01:53.089Z,1.50
2022-08-10T12:04:25.216Z,1.67
2022-08-10T12:06:57.914Z,1.65
2022-08-10T12:10:09.788Z,1.75
2022-08-10T12:12:24.890Z,1.70
2022-08-10T12:15:05.332Z,1.80
2022-08-10T12:17:42.501Z,1.83
2022-08-10T12:20:20.319Z,1.70
2022-08-10T12:22:58.631Z,1.98
2022-08-10T12:25:57.409Z,1.73
2022-08-10T12:28:50.337Z,1.70
2022-08-10T12:31:32.110Z,1.70
2022-08-10T12:34:22.703Z,1.65
2022-08-10T12:37:09.581Z,1.60
2022-08-10T12:40:02.660Z,1.73
2022-08-10T12:43:01.625Z,1.48
2022-08-10T12:46:01.938Z,1.52
2022-08-10T12:48:46.726Z,1.58
2022-08-10T12:51:24.194Z,1.70
2022-08-10T12:54:09.976Z,1.45
2022-08-10T12:56:45.240Z,1.55
2022-08-10T12:59:19.161Z,1.70
2022-08-10T13:02:06.383Z,1.63
2022-08-10T13:04:44.574Z,1.88
2022-08-10T13:08:25.688Z,1.60
2022-08-10T13:10:17.421Z,1.50
2022-08-10T13:12:56.533Z,1.67
2022-08-10T13:15:49.615Z,1.88
2022-08-10T13:18:32.399Z,1.60
2022-08-10T13:21:19.948Z,1.70
2022-08-10T13:24:03.557Z,1.70
2022-08-10T13:27:23.557Z,1.60
2022-08-10T13:29:39.621Z,1.77
2022-08-10T13:32:13.642Z,1.70
2022-08-10T13:34:50.222Z,1.73
2022-08-10T13:37:27.019Z,1.80
2022-08-10T13:40:02.356Z,1.80
2022-08-10T13:42:38.987Z,1.83
2022-08-10T13:45:14.346Z,1.80
2022-08-10T13:47:50.226Z,1.90
2022-08-10T13:50:35.601Z,1.80
2022-08-10T13:53:17.130Z,1.80
2022-08-10T13:55:55.248Z,1.60
2022-08-10T13:58:32.603Z,1.60
2022-08-10T14:01:12.541Z,1.60
2022-08-10T14:03:47.505Z,1.80
2022-08-10T14:06:22.857Z,1.73
2022-08-10T14:09:05.518Z,1.70
2022-08-10T14:11:38.994Z,1.70
2022-08-10T14:14:19.293Z,1.90
2022-08-10T14:16:54.815Z,1.60
2022-08-10T14:19:32.997Z,1.70
2022-08-10T14:22:06.688Z,1.67
2022-08-10T14:24:37.294Z,1.83
2022-08-10T14:27:12.388Z,1.65
2022-08-10T14:29:47.660Z,1.88
2022-08-10T14:32:23.968Z,1.67
2022-08-10T14:36:16.544Z,1.60
2022-08-10T14:37:57.878Z,1.80
2022-08-10T14:40:39.078Z,1.90
2022-08-10T14:43:28.680Z,1.70
2022-08-10T14:46:05.669Z,1.70
2022-08-10T14:48:43.578Z,1.50
2022-08-10T14:51:20.361Z,1.70
2022-08-10T14:53:58.879Z,1.80
2022-08-10T14:56:34.385Z,1.55
2022-08-10T14:59:09.352Z,1.90
2022-08-10T15:02:01.207Z,1.90
2022-08-10T15:04:37.970Z,1.90
2022-08-10T15:07:13.807Z,1.90
2022-08-10T15:10:00.989Z,1.70
2022-08-10T15:12:38.590Z,1.88
2022-08-10T15:15:16.480Z,1.55
2022-08-10T15:17:54.765Z,1.70
2022-08-10T15:20:32.479Z,1.77
2022-08-10T15:23:30.876Z,1.58
2022-08-10T15:26:11.504Z,1.50
2022-08-10T15:29:22.801Z,1.55
2022-08-10T15:32:01.614Z,1.58
2022-08-10T15:34:52.837Z,1.42
2022-08-10T15:37:39.911Z,1.30
2022-08-10T15:40:26.128Z,1.60
2022-08-10T15:43:24.952Z,1.38
2022-08-10T15:46:03.948Z,1.20
2022-08-10T15:48:48.007Z,1.67
2022-08-10T15:51:53.823Z,1.60
2022-08-10T15:54:33.216Z,1.48
2022-08-10T15:57:11.256Z,1.40
2022-08-10T15:59:55.056Z,1.60
2022-08-10T16:02:33.393Z,1.35
2022-08-10T16:05:14.777Z,1.45
2022-08-10T16:07:57.416Z,1.42
2022-08-10T16:10:38.838Z,1.40
2022-08-10T16:13:50.378Z,1.58
2022-08-10T16:16:13.599Z,1.17
2022-08-10T16:18:48.536Z,1.17
2022-08-10T16:21:23.864Z,1.55
2022-08-10T16:24:14.593Z,2.00
2022-08-10T16:26:55.393Z,2.20
2022-08-10T16:29:29.650Z,1.95
2022-08-10T16:32:06.379Z,1.73
2022-08-10T16:34:42.333Z,1.73
2022-08-10T16:37:16.994Z,1.88
2022-08-10T16:40:00.256Z,1.70
2022-08-10T16:42:36.262Z,1.70
2022-08-10T16:45:12.766Z,1.60
2022-08-10T16:47:51.059Z,1.52
2022-08-10T16:50:29.335Z,1.50
2022-08-10T16:53:05.841Z,1.67
2022-08-10T16:55:48.123Z,1.48
2022-08-10T16:58:28.002Z,1.42
2022-08-10T17:01:06.585Z,1.50
2022-08-10T17:04:08.087Z,1.23
2022-08-10T17:06:44.631Z,1.23
2022-08-10T17:09:21.699Z,1.70
2022-08-10T17:11:57.001Z,1.50
2022-08-10T17:14:32.234Z,1.35
2022-08-10T17:17:10.651Z,1.55
2022-08-10T17:19:47.880Z,1.40
2022-08-10T17:22:23.196Z,1.55
2022-08-10T17:25:00.779Z,1.50
2022-08-10T17:28:05.447Z,1.30
2022-08-10T17:30:36.912Z,1.33
2022-08-10T17:33:31.175Z,1.20
2022-08-10T17:36:07.580Z,1.10
2022-08-10T17:38:41.723Z,1.40
2022-08-10T17:41:15.661Z,1.38
2022-08-10T17:44:02.098Z,1.20
2022-08-10T17:46:39.341Z,1.10
2022-08-10T17:49:13.968Z,1.40
2022-08-10T17:51:54.464Z,1.30
2022-08-10T17:54:32.584Z,1.48
2022-08-10T17:57:09.708Z,1.40
2022-08-10T17:59:42.850Z,1.50
2022-08-10T18:02:20.276Z,1.60
2022-08-10T18:04:54.585Z,1.60
2022-08-10T18:07:39.040Z,1.55
2022-08-10T18:10:17.250Z,1.25
2022-08-10T18:12:55.094Z,1.38
2022-08-10T18:15:33.008Z,1.40
2022-08-10T18:18:06.837Z,1.30
2022-08-10T18:20:39.881Z,1.20
2022-08-10T18:23:13.892Z,1.50
2022-08-10T18:25:48.815Z,1.15
2022-08-10T18:28:24.052Z,1.33
2022-08-10T18:30:58.150Z,1.23
2022-08-10T18:33:33.463Z,1.02
2022-08-10T18:36:08.393Z,1.35
2022-08-10T18:38:47.586Z,1.33
2022-08-10T18:41:25.778Z,1.20
2022-08-10T18:44:09.882Z,1.60
2022-08-10T18:46:52.537Z,1.25
2022-08-10T18:49:33.868Z,1.33
2022-08-10T18:52:10.318Z,1.38
2022-08-10T18:54:52.657Z,1.27
2022-08-10T18:57:42.797Z,1.35
2022-08-10T19:00:17.473Z,1.30
2022-08-10T19:03:53.517Z,1.48
2022-08-10T19:07:03.330Z,1.13
2022-08-10T19:10:08.200Z,1.27
2022-08-10T19:12:59.286Z,1.10
2022-08-10T19:15:41.342Z,1.05
2022-08-10T19:18:37.905Z,1.20
2022-08-10T19:21:24.079Z,1.35
2022-08-10T19:24:15.039Z,1.00
2022-08-10T19:27:14.405Z,1.38
2022-08-10T19:30:13.246Z,1.10
2022-08-10T19:33:24.554Z,1.50
2022-08-10T19:36:21.386Z,1.25
2022-08-10T19:39:08.454Z,1.20
2022-08-10T19:41:54.673Z,1.40
2022-08-10T19:44:45.325Z,1.40
2022-08-10T19:47:31.705Z,1.30
2022-08-10T19:50:17.540Z,1.33
2022-08-10T19:53:07.142Z,1.02
2022-08-10T19:55:51.391Z,1.23
2022-08-10T19:58:37.897Z,1.05
2022-08-10T20:01:11.298Z,1.23
2022-08-10T20:03:54.476Z,1.20
2022-08-10T20:06:47.137Z,1.27
2022-08-10T20:09:31.318Z,1.15
2022-08-10T20:12:08.934Z,1.13
2022-08-10T20:14:54.533Z,1.42
2022-08-10T20:17:51.607Z,1.38
2022-08-10T20:20:31.754Z,1.20
2022-08-10T20:23:19.263Z,1.08
2022-08-10T20:26:00.597Z,1.30
2022-08-10T20:28:44.215Z,1.30
2022-08-10T20:31:38.867Z,1.30
2022-08-10T20:34:19.180Z,1.15
2022-08-10T20:37:00.281Z,1.10
2022-08-10T20:39:50.089Z,1.40
2022-08-10T20:42:30.898Z,1.33
2022-08-10T20:45:10.078Z,1.13
2022-08-10T20:47:59.345Z,1.13
2022-08-10T20:50:39.772Z,1.10
2022-08-10T20:53:16.355Z,1.30
2022-08-10T20:56:02.477Z,1.33
2022-08-10T20:59:09.392Z,1.27
2022-08-10T21:02:07.439Z,1.10
2022-08-10T21:04:58.950Z,1.20
2022-08-10T21:08:01.803Z,1.30
2022-08-10T21:11:01.070Z,1.20
2022-08-10T21:14:14.419Z,1.10
2022-08-10T21:17:11.504Z,1.10
2022-08-10T21:20:14.190Z,0.98
2022-08-10T21:22:50.113Z,1.20
2022-08-10T21:25:29.725Z,1.30
2022-08-10T21:28:30.171Z,1.30
2022-08-10T21:31:45.607Z,1.13
2022-08-10T21:34:54.184Z,1.17
2022-08-10T21:37:40.341Z,1.20
2022-08-10T21:44:18.250Z,1.20
2022-08-10T21:47:39.650Z,1.10
2022-08-10T21:50:28.780Z,0.98
2022-08-10T21:53:44.807Z,1.20
2022-08-10T21:56:46.931Z,1.10
2022-08-10T21:59:49.540Z,1.08
2022-08-10T22:05:56.882Z,1.20
2022-08-10T22:08:57.598Z,1.13
2022-08-10T22:11:49.123Z,1.17
2022-08-10T22:14:46.237Z,1.25
2022-08-10T22:17:59.793Z,1.20
2022-08-10T22:20:49.621Z,1.00
2022-08-10T22:24:16.784Z,1.20
2022-08-10T22:27:47.224Z,1.15
2022-08-10T22:30:37.275Z,1.10
2022-08-10T22:31:25.112Z,1.15
2022-08-10T22:33:49.763Z,1.00
2022-08-10T22:37:09.201Z,1.00
2022-08-10T22:40:19.502Z,0.90
2022-08-10T22:43:13.027Z,0.90
2022-08-10T22:46:10.887Z,1.23
2022-08-10T22:49:00.677Z,1.30
2022-08-10T22:51:48.115Z,1.10
2022-08-10T22:54:42.080Z,0.98
2022-08-10T22:57:35.921Z,1.10
2022-08-10T23:00:31.233Z,1.08
2022-08-10T23:03:15.260Z,0.90
2022-08-10T23:05:58.428Z,0.95
2022-08-10T23:08:36.828Z,0.80
2022-08-10T23:11:11.241Z,0.90
2022-08-10T23:13:49.781Z,0.80
2022-08-10T23:16:42.964Z,0.80
2022-08-10T23:19:23.309Z,1.00
2022-08-10T23:22:04.140Z,1.17
2022-08-10T23:24:40.707Z,1.13
2022-08-10T23:27:38.372Z,1.08
2022-08-10T23:30:17.012Z,0.90
2022-08-10T23:32:51.628Z,0.85
2022-08-10T23:36:13.017Z,0.98
2022-08-10T23:38:23.413Z,1.10
2022-08-10T23:40:57.504Z,1.00
2022-08-10T23:44:02.442Z,1.02
2022-08-10T23:46:30.867Z,1.10
2022-08-10T23:49:04.905Z,0.90
2022-08-10T23:51:56.219Z,1.08
2022-08-10T23:54:28.600Z,1.33
2022-08-10T23:57:03.165Z,0.90
2022-08-10T23:59:36.650Z,0.95
